Terminal Aerodrome Forecast
Issued by NWS Salt Lake City, UT

Home | Current Version | Previous Version | Text Only | Print | Product List | Glossary On
Versions: 1 2 3 4 5 6 7 8 9 10 11 12 13 14 15 16 17 18 19 20 21 22 23 24 25 26 27 28 29 30 31 32 33 34 35 36 37 38 39 40 41 42
000
FTUS45 KSLC 271853 AAA
TAFCDC
TAF AMD
KCDC 271853Z 2719/2818 VRB05KT P6SM VCSH SCT070 BKN120
      TEMPO 2720/2721 VRB15G25KT 6SM -TSRA BKN070CB
     FM280200 VRB03KT P6SM FEW070 SCT120=

USA.gov is the U.S. government's official web portal to all federal, state and local government web resources and services.